Time;durP1;ratioP1;P1;durP2;ratioP2;P2;SDS_P1;SDS_P2;PMS_P1;PMS_P2;Temp;Humidity;BMP_temperature;BMP_pressure;BME280_temperature;BME280_humidity;BME280_pressure;Samples;Min_cycle;Max_cycle;Signal;HPM_P1;HPM_P2
2022/04/03 00:00:15;;;;;;;7.53;6.00;;;3.10;82.70;;;;;;5066932;28;20475;-46
2022/04/03 00:02:42;;;;;;;8.20;6.67;;;3.10;82.80;;;;;;5067072;28;20484;-46
2022/04/03 00:05:09;;;;;;;11.87;7.83;;;3.10;82.90;;;;;;5065396;28;20480;-46
2022/04/03 00:07:36;;;;;;;16.27;7.63;;;3.00;82.70;;;;;;5068719;28;21369;-46
2022/04/03 00:10:03;;;;;;;7.93;6.90;;;3.00;82.50;;;;;;5054615;28;20916;-46
2022/04/03 00:12:30;;;;;;;15.17;8.00;;;3.00;82.40;;;;;;5066073;28;20570;-46
2022/04/03 00:14:58;;;;;;;11.73;7.50;;;3.00;82.80;;;;;;5064029;28;20487;-46
2022/04/03 00:17:24;;;;;;;12.70;6.50;;;3.00;82.60;;;;;;5067753;28;20538;-46
2022/04/03 00:19:51;;;;;;;13.20;8.67;;;3.00;82.50;;;;;;5069983;28;20528;-46
2022/04/03 00:22:18;;;;;;;13.47;7.40;;;2.90;82.70;;;;;;5040164;28;20469;-46
2022/04/03 00:24:44;;;;;;;9.30;6.50;;;3.00;82.60;;;;;;5066583;28;20611;-46
2022/04/03 00:27:11;;;;;;;8.57;6.87;;;3.00;82.50;;;;;;5069365;28;21278;-46
2022/04/03 00:29:38;;;;;;;8.50;7.00;;;2.90;82.10;;;;;;5069261;28;20480;-46
2022/04/03 00:32:07;;;;;;;10.40;7.00;;;2.90;82.10;;;;;;5065720;28;20484;-46
2022/04/03 00:34:34;;;;;;;10.13;7.20;;;2.90;82.10;;;;;;5067367;28;20520;-45
2022/04/03 00:37:00;;;;;;;16.87;8.30;;;2.80;82.00;;;;;;5069541;28;20476;-45
2022/04/03 00:39:27;;;;;;;6.33;5.37;;;2.80;82.10;;;;;;5069462;28;20556;-46
2022/04/03 00:41:55;;;;;;;10.70;6.80;;;2.80;82.10;;;;;;5068159;28;20479;-46
2022/04/03 00:44:22;;;;;;;17.60;7.27;;;2.70;81.90;;;;;;5068143;28;20490;-45
2022/04/03 00:46:48;;;;;;;10.43;7.00;;;2.70;82.30;;;;;;5040579;28;20472;-45
2022/04/03 00:49:17;;;;;;;7.77;6.37;;;2.70;82.50;;;;;;5068761;28;20885;-45
2022/04/03 00:51:43;;;;;;;9.27;6.53;;;2.60;83.00;;;;;;5067485;28;20479;-45
2022/04/03 00:54:11;;;;;;;10.17;6.77;;;2.60;83.20;;;;;;5068037;28;20790;-45
2022/04/03 00:56:39;;;;;;;10.57;7.93;;;2.50;83.30;;;;;;5057386;28;20530;-46
2022/04/03 00:59:06;;;;;;;9.00;6.00;;;2.50;82.60;;;;;;5066851;28;20479;-45
2022/04/03 01:01:33;;;;;;;11.10;6.53;;;2.50;82.50;;;;;;5055718;28;20551;-46
2022/04/03 01:04:00;;;;;;;11.50;6.87;;;2.40;82.20;;;;;;5064123;28;20474;-46
2022/04/03 01:06:28;;;;;;;30.33;7.90;;;2.40;82.50;;;;;;5068965;28;20487;-46
2022/04/03 01:08:55;;;;;;;10.60;7.70;;;2.40;82.50;;;;;;5067335;28;20475;-46
2022/04/03 01:11:22;;;;;;;9.53;7.00;;;2.40;82.70;;;;;;5068486;28;20869;-46
2022/04/03 01:13:51;;;;;;;11.80;7.93;;;2.20;82.20;;;;;;5039565;28;21066;-46
2022/04/03 01:16:18;;;;;;;10.80;7.00;;;2.00;82.70;;;;;;5068339;28;20536;-46
2022/04/03 01:18:45;;;;;;;10.13;7.50;;;1.90;83.10;;;;;;5067219;28;26073;-46
2022/04/03 01:21:12;;;;;;;21.63;6.73;;;1.80;83.60;;;;;;5067846;28;20484;-45
2022/04/03 01:23:41;;;;;;;6.17;5.60;;;1.70;84.30;;;;;;5064636;28;20486;-47
2022/04/03 01:26:09;;;;;;;9.47;6.60;;;1.60;84.90;;;;;;5069296;28;20866;-45
2022/04/03 01:28:36;;;;;;;19.67;8.20;;;1.50;85.30;;;;;;5068274;28;20885;-45
2022/04/03 01:31:02;;;;;;;10.37;8.50;;;1.50;86.00;;;;;;5064049;28;20487;-46
2022/04/03 01:33:29;;;;;;;18.10;8.23;;;1.50;86.20;;;;;;5066638;28;20480;-46
2022/04/03 01:35:56;;;;;;;22.53;8.87;;;1.50;86.50;;;;;;5063981;28;20513;-46
2022/04/03 01:38:23;;;;;;;13.47;7.77;;;1.50;86.70;;;;;;5066703;28;20485;-45
2022/04/03 01:40:49;;;;;;;11.80;8.57;;;1.50;86.70;;;;;;5067971;28;20544;-46
2022/04/03 01:43:17;;;;;;;23.63;8.47;;;1.70;86.60;;;;;;5066518;28;20471;-46
2022/04/03 01:45:44;;;;;;;11.20;7.30;;;1.70;86.20;;;;;;5044435;28;20549;-46
2022/04/03 01:48:11;;;;;;;10.30;7.17;;;1.80;86.00;;;;;;5062309;28;20576;-45
2022/04/03 01:50:37;;;;;;;16.40;8.57;;;1.90;85.80;;;;;;5067281;28;20541;-46
2022/04/03 01:53:05;;;;;;;11.97;5.93;;;2.00;85.50;;;;;;5063625;28;20480;-46
2022/04/03 01:55:32;;;;;;;8.10;6.70;;;2.00;85.10;;;;;;5064188;28;21004;-46
2022/04/03 01:57:59;;;;;;;14.83;8.00;;;2.10;84.90;;;;;;5067084;28;20471;-46
2022/04/03 02:00:27;;;;;;;16.80;8.30;;;2.20;84.90;;;;;;5069691;28;20872;-45
2022/04/03 02:02:53;;;;;;;11.83;7.93;;;2.20;85.00;;;;;;5068132;28;21298;-45
2022/04/03 02:05:21;;;;;;;16.83;7.90;;;2.20;85.40;;;;;;5062553;28;21001;-45
2022/04/03 02:07:48;;;;;;;12.53;6.57;;;2.30;85.50;;;;;;5066756;28;20475;-45
2022/04/03 02:10:15;;;;;;;7.77;6.70;;;2.30;85.20;;;;;;5067661;28;20553;-46
2022/04/03 02:12:42;;;;;;;18.60;7.80;;;2.30;85.00;;;;;;5061520;28;20908;-46
2022/04/03 02:15:11;;;;;;;14.07;7.00;;;2.30;84.80;;;;;;5060889;28;20476;-45
2022/04/03 02:17:40;;;;;;;9.37;6.70;;;2.30;84.90;;;;;;5068146;28;20489;-46
2022/04/03 02:20:08;;;;;;;16.50;8.63;;;2.30;85.40;;;;;;5067178;28;20489;-45
2022/04/03 02:22:35;;;;;;;14.33;8.57;;;2.30;85.20;;;;;;5065001;28;20487;-46
2022/04/03 02:25:03;;;;;;;10.23;6.80;;;2.30;85.00;;;;;;5062540;28;20514;-45
2022/04/03 02:27:30;;;;;;;16.40;7.30;;;2.40;85.10;;;;;;5066954;28;20831;-46
2022/04/03 02:29:57;;;;;;;11.80;7.17;;;2.40;84.90;;;;;;5062665;28;21003;-46
2022/04/03 02:32:25;;;;;;;10.50;6.93;;;2.50;85.00;;;;;;5061938;28;20469;-46
2022/04/03 02:34:53;;;;;;;15.53;7.40;;;2.50;84.90;;;;;;5060113;28;20475;-45
2022/04/03 02:37:20;;;;;;;11.23;7.50;;;2.50;84.80;;;;;;5050654;28;20484;-46
2022/04/03 02:39:47;;;;;;;10.27;6.80;;;2.50;85.00;;;;;;5046945;28;21174;-46
2022/04/03 02:42:14;;;;;;;9.67;7.73;;;2.40;85.00;;;;;;5067666;28;20495;-46
2022/04/03 02:44:41;;;;;;;12.20;8.13;;;2.40;85.10;;;;;;5060253;28;20479;-46
2022/04/03 02:47:09;;;;;;;11.37;7.80;;;;;;;;;;5060532;28;20476;-47
2022/04/03 02:49:36;;;;;;;9.40;6.63;;;2.40;85.50;;;;;;5059968;28;20485;-45
2022/04/03 02:52:04;;;;;;;14.37;7.50;;;2.50;85.60;;;;;;5060391;28;20481;-46
2022/04/03 02:54:32;;;;;;;11.80;8.67;;;2.60;85.50;;;;;;5059543;28;20483;-46
2022/04/03 02:56:59;;;;;;;11.50;7.03;;;2.60;85.60;;;;;;5060514;28;20499;-46
2022/04/03 02:59:26;;;;;;;11.37;7.87;;;2.60;85.40;;;;;;5048503;28;20546;-46
2022/04/03 03:01:52;;;;;;;17.83;7.70;;;2.50;85.50;;;;;;5043891;28;20590;-46
2022/04/03 03:04:19;;;;;;;10.20;8.47;;;2.40;85.50;;;;;;5039833;28;20477;-46
2022/04/03 03:06:46;;;;;;;8.40;7.20;;;2.40;85.70;;;;;;5042548;28;20513;-46
2022/04/03 03:09:14;;;;;;;11.73;8.03;;;2.50;85.90;;;;;;5035725;28;20533;-46
2022/04/03 03:11:41;;;;;;;8.23;7.27;;;2.60;85.80;;;;;;5041204;28;21358;-46
2022/04/03 03:14:07;;;;;;;10.10;6.73;;;2.60;85.60;;;;;;5056162;28;20478;-46
2022/04/03 03:16:34;;;;;;;10.27;8.10;;;2.60;85.20;;;;;;5062292;28;20489;-46
2022/04/03 03:19:01;;;;;;;11.37;7.63;;;2.70;85.30;;;;;;5061285;28;21084;-46
2022/04/03 03:21:28;;;;;;;10.30;7.97;;;2.70;85.40;;;;;;5060089;28;20556;-47
2022/04/03 03:23:55;;;;;;;10.23;6.97;;;2.60;85.30;;;;;;5047157;28;20483;-46
2022/04/03 03:26:23;;;;;;;9.57;7.93;;;2.70;85.30;;;;;;5037944;28;20543;-46
2022/04/03 03:28:49;;;;;;;11.50;8.63;;;2.70;85.30;;;;;;5060293;28;21060;-46
2022/04/03 03:31:16;;;;;;;14.60;8.73;;;2.70;85.10;;;;;;5057577;28;20480;-46
2022/04/03 03:33:43;;;;;;;13.60;8.10;;;2.80;85.30;;;;;;5053632;28;20488;-46
2022/04/03 03:36:10;;;;;;;8.80;7.20;;;2.80;85.10;;;;;;5062419;28;20489;-46
2022/04/03 03:38:37;;;;;;;11.87;7.50;;;2.80;85.30;;;;;;5061953;28;20491;-46
2022/04/03 03:41:04;;;;;;;13.07;7.50;;;2.80;85.40;;;;;;5056203;28;20473;-49
2022/04/03 03:43:32;;;;;;;10.93;8.20;;;2.90;85.10;;;;;;5059116;28;20480;-45
2022/04/03 03:45:59;;;;;;;11.20;8.23;;;2.90;84.80;;;;;;5057453;28;20480;-47
2022/04/03 03:48:26;;;;;;;12.00;7.47;;;2.90;84.80;;;;;;5062179;28;20485;-48
2022/04/03 03:50:53;;;;;;;11.17;7.77;;;2.90;84.80;;;;;;5059770;28;20929;-48
2022/04/03 03:53:20;;;;;;;10.97;8.77;;;3.00;85.00;;;;;;5065035;28;20533;-47
2022/04/03 03:55:47;;;;;;;9.03;7.20;;;3.00;85.30;;;;;;5062904;28;21009;-48
2022/04/03 03:58:14;;;;;;;9.57;6.80;;;2.90;85.50;;;;;;5058312;28;20485;-48
2022/04/03 04:00:42;;;;;;;8.50;6.33;;;2.80;85.90;;;;;;5056871;28;20485;-48
2022/04/03 04:03:09;;;;;;;12.60;8.30;;;2.80;86.20;;;;;;5059382;28;20484;-48
2022/04/03 04:05:36;;;;;;;9.73;7.20;;;2.80;86.10;;;;;;5060375;28;20491;-49
2022/04/03 04:08:03;;;;;;;13.37;7.40;;;2.90;86.00;;;;;;5059868;28;20565;-48
2022/04/03 04:10:30;;;;;;;9.77;7.43;;;2.90;86.20;;;;;;5059733;28;20476;-48
2022/04/03 04:12:57;;;;;;;12.40;8.17;;;2.90;86.20;;;;;;5058769;28;21445;-48
2022/04/03 04:15:25;;;;;;;15.90;8.60;;;3.00;86.20;;;;;;5060098;28;20486;-48
2022/04/03 04:17:55;;;;;;;11.67;7.27;;;3.00;86.10;;;;;;5060509;28;20504;-48
2022/04/03 04:20:22;;;;;;;8.57;6.90;;;3.00;86.00;;;;;;5061246;28;20475;-48
2022/04/03 04:22:51;;;;;;;9.73;7.17;;;3.00;85.80;;;;;;5065446;28;20481;-48
2022/04/03 04:25:19;;;;;;;11.53;7.70;;;3.00;85.70;;;;;;5061623;28;20490;-47
2022/04/03 04:27:47;;;;;;;13.13;8.40;;;3.00;85.80;;;;;;5065309;28;20485;-47
2022/04/03 04:30:15;;;;;;;17.20;8.67;;;2.90;85.70;;;;;;5061744;28;20619;-47
2022/04/03 04:32:42;;;;;;;9.13;7.63;;;2.90;85.60;;;;;;5060435;28;20846;-47
2022/04/03 04:35:13;;;;;;;13.87;7.83;;;2.90;85.80;;;;;;5060335;28;20477;-48
2022/04/03 04:37:40;;;;;;;15.07;8.10;;;2.80;86.00;;;;;;5056218;28;20471;-49
2022/04/03 04:40:09;;;;;;;15.50;8.77;;;2.80;86.20;;;;;;5064032;28;20488;-48
2022/04/03 04:42:36;;;;;;;10.80;7.73;;;2.80;86.50;;;;;;5067167;28;20499;-48
2022/04/03 04:45:03;;;;;;;19.40;9.63;;;2.80;86.10;;;;;;5050557;28;20472;-48
2022/04/03 04:47:34;;;;;;;10.43;8.23;;;2.80;85.80;;;;;;5049066;28;20534;-48
2022/04/03 04:50:01;;;;;;;11.70;7.17;;;2.80;86.20;;;;;;5050336;28;20489;-48
2022/04/03 04:52:29;;;;;;;14.67;7.47;;;2.90;86.30;;;;;;5049257;28;20478;-48
2022/04/03 04:54:56;;;;;;;12.03;7.60;;;2.90;86.30;;;;;;5048999;28;20543;-48
2022/04/03 04:57:23;;;;;;;9.07;7.87;;;2.90;86.10;;;;;;5048662;28;20546;-48
2022/04/03 04:59:49;;;;;;;9.60;7.60;;;2.90;86.10;;;;;;5051829;28;20480;-48
2022/04/03 05:02:16;;;;;;;9.83;7.07;;;3.00;86.50;;;;;;5048781;28;20890;-48
2022/04/03 05:04:43;;;;;;;11.13;7.13;;;3.00;86.60;;;;;;5050619;28;20486;-49
2022/04/03 05:07:10;;;;;;;9.20;6.90;;;3.00;86.60;;;;;;5051628;28;20511;-49
2022/04/03 05:09:38;;;;;;;12.43;8.33;;;3.00;86.60;;;;;;5048812;28;20534;-48
2022/04/03 05:12:07;;;;;;;11.87;8.53;;;3.00;86.40;;;;;;5047793;28;20904;-48
2022/04/03 05:14:33;;;;;;;11.17;7.77;;;3.00;86.20;;;;;;5034224;28;20481;-48
2022/04/03 05:17:00;;;;;;;16.70;9.30;;;3.10;86.20;;;;;;5045823;28;20531;-48
2022/04/03 05:19:27;;;;;;;16.93;8.30;;;3.10;86.20;;;;;;5052767;28;20546;-47
2022/04/03 05:21:54;;;;;;;8.97;8.00;;;3.10;86.30;;;;;;5060914;28;20882;-48
2022/04/03 05:24:21;;;;;;;12.60;7.90;;;3.10;86.30;;;;;;5059649;28;20503;-48
2022/04/03 05:26:50;;;;;;;8.30;6.87;;;3.10;85.90;;;;;;5063438;28;20525;-48
2022/04/03 05:29:17;;;;;;;13.27;7.30;;;3.10;85.80;;;;;;5062684;28;20595;-48
2022/04/03 05:31:44;;;;;;;11.13;8.43;;;3.10;85.70;;;;;;5062302;28;20534;-49
2022/04/03 05:34:11;;;;;;;19.40;7.77;;;3.20;85.70;;;;;;5062793;28;20500;-48
2022/04/03 05:36:38;;;;;;;8.20;7.30;;;3.20;85.80;;;;;;5063638;28;20495;-49
2022/04/03 05:39:05;;;;;;;11.97;8.13;;;3.20;85.80;;;;;;5065609;28;20483;-48
2022/04/03 05:41:32;;;;;;;10.43;7.97;;;3.20;85.90;;;;;;5061112;28;20489;-48
2022/04/03 05:44:01;;;;;;;9.17;7.83;;;3.20;86.00;;;;;;5061518;28;21008;-48
2022/04/03 05:46:28;;;;;;;8.60;6.43;;;3.20;86.20;;;;;;5061602;28;20484;-48
2022/04/03 05:48:54;;;;;;;19.80;7.87;;;3.20;86.30;;;;;;5059550;28;20479;-49
2022/04/03 05:51:21;;;;;;;11.23;8.43;;;3.30;86.60;;;;;;5062175;28;20973;-49
2022/04/03 05:53:48;;;;;;;12.50;8.93;;;3.30;86.60;;;;;;5060934;28;20530;-49
2022/04/03 05:56:15;;;;;;;40.50;12.47;;;3.30;86.40;;;;;;5062424;28;20554;-49
2022/04/03 05:58:41;;;;;;;14.17;9.60;;;3.30;86.40;;;;;;5062468;28;20546;-49
2022/04/03 06:01:09;;;;;;;9.83;7.30;;;3.30;86.40;;;;;;5049758;28;20908;-48
2022/04/03 06:03:36;;;;;;;33.53;10.37;;;3.30;86.40;;;;;;5062082;28;20481;-49
2022/04/03 06:06:04;;;;;;;12.87;9.60;;;3.40;86.50;;;;;;5060510;28;20772;-49
2022/04/03 06:08:31;;;;;;;22.73;10.47;;;3.40;86.60;;;;;;5062730;28;20500;-48
2022/04/03 06:10:57;;;;;;;22.63;9.63;;;3.60;87.10;;;;;;5061327;28;20554;-49
2022/04/03 06:13:25;;;;;;;21.57;11.87;;;3.60;87.30;;;;;;5062637;28;20481;-49
2022/04/03 06:15:51;;;;;;;16.40;12.10;;;3.80;87.80;;;;;;5061948;28;20521;-49
2022/04/03 06:18:20;;;;;;;34.67;11.90;;;4.00;88.40;;;;;;5063092;28;20538;-49
2022/04/03 06:20:47;;;;;;;16.77;9.70;;;4.20;88.00;;;;;;5061368;28;20472;-49
2022/04/03 06:23:16;;;;;;;14.60;8.50;;;4.30;87.00;;;;;;5064684;28;20577;-49
2022/04/03 06:25:43;;;;;;;29.00;10.53;;;4.50;86.70;;;;;;5060265;28;20554;-49
2022/04/03 06:28:10;;;;;;;38.73;18.73;;;4.60;85.70;;;;;;5037376;28;20477;-48
2022/04/03 06:30:37;;;;;;;31.87;16.43;;;4.70;85.70;;;;;;5062827;28;20469;-48
2022/04/03 06:33:05;;;;;;;30.10;13.83;;;4.90;85.40;;;;;;5061895;28;20480;-48
2022/04/03 06:35:33;;;;;;;23.00;12.13;;;5.10;85.70;;;;;;5059838;28;20530;-48
2022/04/03 06:37:59;;;;;;;18.40;11.87;;;5.40;84.80;;;;;;5062048;28;20487;-48
2022/04/03 06:40:26;;;;;;;20.70;10.30;;;6.40;86.10;;;;;;5061625;28;20550;-48
2022/04/03 06:42:53;;;;;;;17.60;10.63;;;7.20;85.30;;;;;;5062012;28;20966;-48
2022/04/03 06:45:21;;;;;;;18.00;10.40;;;7.60;83.70;;;;;;5058198;28;20482;-48
2022/04/03 06:47:47;;;;;;;13.70;9.40;;;9.30;80.40;;;;;;5063719;28;20478;-47
2022/04/03 06:50:14;;;;;;;18.20;9.80;;;9.40;80.90;;;;;;5062702;28;20487;-48
2022/04/03 06:52:42;;;;;;;10.83;7.60;;;10.20;77.10;;;;;;5063132;28;20478;-48
2022/04/03 06:55:10;;;;;;;11.50;7.57;;;11.40;70.10;;;;;;5056378;28;21002;-48
2022/04/03 06:57:37;;;;;;;12.20;8.40;;;11.50;70.30;;;;;;5061372;28;20477;-48
2022/04/03 07:00:05;;;;;;;11.40;7.30;;;12.20;70.00;;;;;;5061576;28;21025;-48
2022/04/03 07:02:32;;;;;;;13.40;7.33;;;12.90;66.10;;;;;;5062237;28;20494;-48
2022/04/03 07:04:59;;;;;;;13.07;7.30;;;13.00;65.90;;;;;;5061429;28;20495;-48
2022/04/03 07:07:26;;;;;;;9.30;7.10;;;13.30;64.10;;;;;;5062205;28;21005;-47
2022/04/03 07:09:54;;;;;;;11.30;7.90;;;13.70;61.70;;;;;;5061235;28;20477;-48
2022/04/03 07:12:22;;;;;;;7.90;7.07;;;13.70;62.50;;;;;;5062610;28;20480;-48
2022/04/03 07:14:49;;;;;;;9.40;6.30;;;13.70;60.30;;;;;;5061056;28;21139;-48
2022/04/03 07:17:17;;;;;;;14.93;7.70;;;13.70;59.30;;;;;;5062247;28;20473;-48
2022/04/03 07:19:43;;;;;;;12.13;7.53;;;13.70;59.80;;;;;;5061277;28;20485;-47
2022/04/03 07:22:10;;;;;;;9.00;7.30;;;13.70;60.50;;;;;;5049651;28;20559;-47
2022/04/03 07:24:37;;;;;;;12.40;7.07;;;13.40;59.20;;;;;;5058501;28;20474;-47
2022/04/03 07:27:05;;;;;;;7.07;6.00;;;13.30;59.60;;;;;;5059048;28;20537;-47
2022/04/03 07:29:33;;;;;;;8.83;7.17;;;13.20;59.80;;;;;;5061225;28;20482;-48
2022/04/03 07:32:00;;;;;;;12.90;6.20;;;12.60;59.00;;;;;;5061255;28;20490;-48
2022/04/03 07:34:27;;;;;;;6.40;5.67;;;12.40;59.30;;;;;;5059394;28;20540;-47
2022/04/03 07:36:54;;;;;;;5.43;4.93;;;12.10;60.00;;;;;;5057001;28;20738;-48
2022/04/03 07:39:22;;;;;;;12.13;6.20;;;11.60;58.80;;;;;;5061648;28;21016;-48
2022/04/03 07:41:50;;;;;;;6.90;5.13;;;11.60;59.20;;;;;;5059412;28;20489;-47
2022/04/03 07:44:18;;;;;;;7.07;6.37;;;11.30;60.60;;;;;;5065265;28;20485;-47
2022/04/03 07:46:45;;;;;;;8.70;6.73;;;11.10;62.40;;;;;;5033106;28;20527;-48
2022/04/03 07:49:12;;;;;;;10.40;6.20;;;11.10;61.90;;;;;;5058576;28;20493;-47
2022/04/03 07:51:39;;;;;;;12.43;5.43;;;;;;;;;;5061403;28;20533;-47
2022/04/03 07:54:06;;;;;;;7.93;6.30;;;11.10;60.70;;;;;;5059073;28;20969;-49
2022/04/03 07:56:32;;;;;;;8.93;5.63;;;10.80;59.80;;;;;;5051365;28;20489;-48
2022/04/03 07:58:59;;;;;;;9.00;5.30;;;10.60;61.20;;;;;;5047026;28;20497;-47
2022/04/03 08:01:28;;;;;;;12.70;7.20;;;10.30;60.60;;;;;;5060659;28;21276;-47
2022/04/03 08:03:54;;;;;;;8.03;5.40;;;10.00;60.70;;;;;;5058690;28;20485;-47
2022/04/03 08:06:21;;;;;;;6.63;4.20;;;9.80;62.80;;;;;;5061644;28;20878;-48
2022/04/03 08:08:48;;;;;;;8.30;6.73;;;9.60;63.80;;;;;;5061603;28;20585;-46
2022/04/03 08:11:15;;;;;;;6.57;5.20;;;9.60;63.20;;;;;;5066009;28;20617;-47
2022/04/03 08:13:42;;;;;;;7.07;4.27;;;;;;;;;;5050397;28;20539;-47
2022/04/03 08:16:09;;;;;;;7.17;4.53;;;9.60;64.90;;;;;;5062114;28;20473;-47
2022/04/03 08:18:37;;;;;;;8.80;6.07;;;9.70;64.00;;;;;;5070361;28;21244;-47
2022/04/03 08:21:04;;;;;;;6.93;4.50;;;10.00;63.30;;;;;;5065659;28;21006;-47
2022/04/03 08:23:31;;;;;;;9.07;5.70;;;10.00;61.50;;;;;;5064454;28;20482;-47
2022/04/03 08:25:57;;;;;;;6.43;4.80;;;10.10;62.50;;;;;;5070380;28;20480;-48
2022/04/03 08:28:24;;;;;;;7.07;5.10;;;10.10;62.40;;;;;;5064848;28;20534;-47
2022/04/03 08:30:52;;;;;;;5.33;4.83;;;10.20;62.00;;;;;;5064321;28;20472;-47
2022/04/03 08:33:19;;;;;;;7.63;6.10;;;10.30;62.30;;;;;;5059516;28;20477;-47
2022/04/03 08:35:50;;;;;;;6.53;4.97;;;10.40;62.40;;;;;;5062632;28;20534;-47
2022/04/03 08:38:17;;;;;;;8.70;3.53;;;10.50;62.40;;;;;;5063659;28;20492;-47
2022/04/03 08:40:44;;;;;;;6.77;5.17;;;10.50;62.10;;;;;;5064021;28;20530;-48
2022/04/03 08:43:13;;;;;;;10.30;6.37;;;10.60;61.30;;;;;;5070213;28;20481;-46
2022/04/03 08:45:40;;;;;;;6.60;4.90;;;10.70;61.70;;;;;;5060767;28;21064;-48
2022/04/03 08:48:09;;;;;;;5.50;5.00;;;10.70;61.50;;;;;;5053863;28;20485;-47
2022/04/03 08:50:37;;;;;;;8.60;5.43;;;10.50;59.90;;;;;;5063838;28;20476;-48
2022/04/03 08:53:08;;;;;;;7.93;5.90;;;10.40;60.30;;;;;;5062631;28;20531;-48
2022/04/03 08:55:35;;;;;;;6.37;5.53;;;10.40;60.80;;;;;;5061363;28;20485;-48
2022/04/03 08:58:03;;;;;;;12.80;5.70;;;10.50;61.90;;;;;;5053231;28;20486;-48
2022/04/03 09:00:31;;;;;;;14.83;6.30;;;10.60;61.70;;;;;;5062861;28;20564;-48
2022/04/03 09:02:58;;;;;;;4.87;4.37;;;10.60;60.60;;;;;;5061146;28;20571;-48
2022/04/03 09:05:36;;;;;;;15.33;4.93;;;10.10;58.00;;;;;;5063168;28;20549;-48
2022/04/03 09:08:03;;;;;;;5.17;4.67;;;9.80;59.10;;;;;;5060709;28;20562;-48
2022/04/03 09:10:31;;;;;;;12.30;5.00;;;9.10;60.00;;;;;;5063390;28;20490;-48
2022/04/03 09:12:59;;;;;;;6.03;4.67;;;8.70;58.80;;;;;;5052311;28;20480;-48
2022/04/03 09:15:26;;;;;;;8.10;4.50;;;8.40;59.40;;;;;;5061412;28;20487;-48
2022/04/03 09:17:54;;;;;;;8.00;4.60;;;8.50;63.80;;;;;;5064185;28;20576;-47
2022/04/03 09:20:23;;;;;;;6.10;3.20;;;8.60;61.90;;;;;;5035905;28;20475;-48
2022/04/03 09:22:51;;;;;;;6.20;4.30;;;8.70;60.10;;;;;;5053020;28;21021;-48
2022/04/03 09:25:24;;;;;;;10.83;4.87;;;8.70;59.00;;;;;;5059049;28;20512;-47
2022/04/03 09:27:54;;;;;;;5.13;3.07;;;8.50;57.80;;;;;;5061712;28;20468;-47
2022/04/03 09:30:23;;;;;;;4.87;3.23;;;8.10;57.50;;;;;;5064656;28;20468;-48
2022/04/03 09:32:51;;;;;;;4.63;3.57;;;7.90;57.30;;;;;;5061669;28;20474;-49
2022/04/03 09:35:24;;;;;;;3.13;2.90;;;7.70;58.10;;;;;;5048316;28;20887;-47
2022/04/03 09:38:08;;;;;;;9.73;3.53;;;7.50;56.90;;;;;;5048891;28;20475;-48
2022/04/03 09:40:37;;;;;;;3.53;2.63;;;7.40;56.70;;;;;;5060427;28;20873;-48
2022/04/03 09:43:16;;;;;;;4.20;2.80;;;7.40;57.10;;;;;;5062437;28;20513;-48
2022/04/03 09:45:48;;;;;;;11.10;5.63;;;7.30;57.00;;;;;;5054011;28;20986;-47
2022/04/03 09:48:23;;;;;;;10.63;3.00;;;7.30;58.50;;;;;;5063788;28;20486;-47
2022/04/03 09:51:04;;;;;;;6.20;2.87;;;7.30;57.90;;;;;;5061808;28;20487;-47
2022/04/03 09:53:41;;;;;;;4.10;3.73;;;7.40;56.90;;;;;;5061864;28;20544;-47
2022/04/03 09:56:09;;;;;;;2.87;2.60;;;7.50;56.80;;;;;;5063145;28;20550;-47
2022/04/03 09:58:59;;;;;;;3.00;2.37;;;7.50;56.00;;;;;;5062787;28;20475;-47
2022/04/03 10:01:27;;;;;;;2.93;2.60;;;7.50;54.90;;;;;;5031036;28;21049;-47
2022/04/03 10:03:55;;;;;;;3.50;2.80;;;7.50;56.50;;;;;;5034584;28;20489;-47
2022/04/03 10:06:23;;;;;;;7.63;4.60;;;7.60;55.30;;;;;;5062584;28;20558;-47
2022/04/03 10:08:51;;;;;;;3.13;2.57;;;7.60;55.60;;;;;;5061208;28;20524;-47
2022/04/03 10:11:18;;;;;;;3.33;2.30;;;7.60;55.50;;;;;;5066799;28;20474;-47
2022/04/03 10:13:47;;;;;;;3.40;3.00;;;7.60;55.60;;;;;;5061767;28;20493;-48
2022/04/03 10:16:16;;;;;;;3.63;2.40;;;7.60;57.30;;;;;;5062366;28;20481;-48
2022/04/03 10:18:43;;;;;;;9.13;2.60;;;7.50;54.30;;;;;;5067330;28;21056;-47
2022/04/03 10:21:19;;;;;;;4.80;2.00;;;7.50;53.80;;;;;;5061329;28;20491;-48
2022/04/03 10:23:47;;;;;;;2.67;2.47;;;7.50;55.40;;;;;;5062343;28;20498;-48
2022/04/03 10:26:18;;;;;;;11.43;3.60;;;7.70;55.00;;;;;;5061982;28;20488;-48
2022/04/03 10:28:50;;;;;;;4.77;2.93;;;7.80;54.20;;;;;;5061410;28;20980;-52
2022/04/03 10:31:17;;;;;;;3.43;2.73;;;7.90;54.70;;;;;;5063054;28;20486;-48
2022/04/03 10:33:49;;;;;;;4.70;2.97;;;7.90;55.40;;;;;;5062954;28;20496;-48
2022/04/03 10:36:23;;;;;;;4.00;2.63;;;8.00;54.90;;;;;;5062080;28;20489;-48
2022/04/03 10:38:59;;;;;;;14.53;4.03;;;8.10;55.80;;;;;;5061677;28;20546;-49
2022/04/03 10:41:28;;;;;;;6.63;3.40;;;8.30;55.50;;;;;;5061717;28;20540;-48
2022/04/03 10:44:19;;;;;;;9.57;4.20;;;8.40;54.50;;;;;;5032783;28;21035;-47
2022/04/03 10:47:21;;;;;;;4.50;3.10;;;8.50;54.70;;;;;;5064697;28;20475;-48
2022/04/03 10:49:59;;;;;;;5.40;2.97;;;8.60;52.90;;;;;;5059933;28;20686;-47
2022/04/03 10:52:47;;;;;;;9.57;3.33;;;8.60;53.20;;;;;;5029282;28;21135;-47
2022/04/03 10:55:16;;;;;;;3.73;2.90;;;8.70;53.20;;;;;;5056906;28;20540;-47
2022/04/03 10:57:44;;;;;;;6.57;3.17;;;8.80;53.90;;;;;;5062058;28;20899;-47
2022/04/03 11:00:31;;;;;;;3.63;3.00;;;8.80;52.80;;;;;;5060695;28;20482;-47
2022/04/03 11:03:01;;;;;;;9.03;3.40;;;9.00;55.00;;;;;;5061991;28;20505;-47
2022/04/03 11:05:42;;;;;;;5.73;2.97;;;9.10;54.60;;;;;;5033825;28;20919;-47
2022/04/03 11:08:17;;;;;;;15.83;3.70;;;9.20;55.00;;;;;;5061092;28;20483;-47
2022/04/03 11:10:46;;;;;;;4.43;3.30;;;9.50;53.70;;;;;;5061127;28;20857;-47
2022/04/03 11:13:14;;;;;;;6.20;2.90;;;9.60;54.10;;;;;;5062619;28;20484;-47
2022/04/03 11:15:50;;;;;;;6.77;4.10;;;10.10;55.10;;;;;;5061221;28;21125;-48
2022/04/03 11:18:27;;;;;;;2.60;2.40;;;10.50;53.20;;;;;;5053803;28;20486;-47
2022/04/03 11:21:09;;;;;;;8.40;3.33;;;10.70;50.40;;;;;;5061488;28;20500;-47
2022/04/03 11:23:36;;;;;;;9.10;2.87;;;10.60;50.40;;;;;;5032281;28;20963;-46
2022/04/03 11:26:04;;;;;;;5.70;2.83;;;10.20;51.00;;;;;;5057763;28;20487;-47
2022/04/03 11:28:34;;;;;;;7.20;3.53;;;10.10;49.50;;;;;;5059291;28;21041;-47
2022/04/03 11:31:03;;;;;;;4.43;3.70;;;10.00;49.80;;;;;;5052408;28;20485;-47
2022/04/03 11:33:30;;;;;;;11.47;5.23;;;9.90;51.80;;;;;;5049485;28;20473;-47
2022/04/03 11:36:06;;;;;;;4.90;3.60;;;10.00;51.00;;;;;;5048082;28;20539;-47
2022/04/03 11:38:36;;;;;;;11.00;4.67;;;10.00;51.30;;;;;;5038254;28;20492;-47
2022/04/03 11:41:05;;;;;;;6.57;3.80;;;9.90;52.30;;;;;;5043878;28;20490;-47
2022/04/03 11:43:31;;;;;;;4.27;3.87;;;9.80;51.90;;;;;;5045101;28;20868;-48
2022/04/03 11:46:00;;;;;;;7.93;3.17;;;10.00;51.40;;;;;;5049511;28;20477;-47
2022/04/03 11:48:30;;;;;;;3.30;3.00;;;10.00;52.50;;;;;;5029917;28;20478;-47
2022/04/03 11:51:16;;;;;;;2.93;2.63;;;10.10;51.90;;;;;;5038532;28;21069;-47
2022/04/03 11:53:44;;;;;;;3.23;2.80;;;10.20;51.10;;;;;;5040416;28;20487;-46
2022/04/03 11:56:13;;;;;;;3.63;3.33;;;10.50;53.50;;;;;;5036105;28;21011;-47
2022/04/03 11:58:41;;;;;;;7.00;3.27;;;11.10;55.60;;;;;;5025347;28;20491;-47
2022/04/03 12:01:08;;;;;;;3.43;3.13;;;11.30;55.20;;;;;;5052640;28;20480;-47
2022/04/03 12:03:37;;;;;;;3.13;2.83;;;11.60;54.10;;;;;;5049151;28;20484;-47
2022/04/03 12:06:16;;;;;;;4.27;3.50;;;12.10;54.30;;;;;;5040479;28;20487;-47
2022/04/03 12:08:45;;;;;;;4.33;3.03;;;12.20;55.00;;;;;;5039669;28;20536;-46
2022/04/03 12:11:20;;;;;;;5.90;3.27;;;12.40;51.00;;;;;;5040601;28;20526;-47
2022/04/03 12:13:47;;;;;;;7.33;3.70;;;12.40;50.30;;;;;;5037598;28;20999;-46
2022/04/03 12:16:20;;;;;;;4.50;2.73;;;12.10;49.00;;;;;;5037341;28;20533;-47
2022/04/03 12:18:50;;;;;;;3.80;3.10;;;11.40;49.20;;;;;;5046214;28;20488;-47
2022/04/03 12:21:17;;;;;;;6.50;2.80;;;11.20;49.00;;;;;;5047201;28;21028;-47
2022/04/03 12:24:03;;;;;;;3.80;3.20;;;10.60;49.00;;;;;;5059787;28;21070;-47
2022/04/03 12:26:29;;;;;;;3.70;3.40;;;10.30;48.60;;;;;;5059614;28;20994;-48
2022/04/03 12:28:56;;;;;;;3.37;3.07;;;10.00;49.30;;;;;;5059600;28;20481;-48
2022/04/03 12:31:27;;;;;;;3.43;3.13;;;9.90;50.40;;;;;;5052457;28;21041;-48
2022/04/03 12:34:10;;;;;;;4.90;3.43;;;10.00;49.60;;;;;;5058076;28;20832;-48
2022/04/03 12:36:41;;;;;;;3.00;2.70;;;10.40;51.20;;;;;;5059928;28;20972;-49
2022/04/03 12:39:28;;;;;;;4.60;2.90;;;10.50;50.10;;;;;;5058853;28;20489;-49
2022/04/03 12:41:55;;;;;;;3.10;2.70;;;10.80;49.70;;;;;;5057578;28;20517;-48
2022/04/03 12:44:22;;;;;;;3.13;2.83;;;10.80;49.70;;;;;;5060763;28;20546;-48
2022/04/03 12:46:49;;;;;;;3.20;2.90;;;11.10;48.60;;;;;;5060206;28;20484;-48
2022/04/03 12:49:18;;;;;;;5.30;3.20;;;11.10;49.50;;;;;;5060379;28;20480;-49
2022/04/03 12:51:45;;;;;;;3.33;3.03;;;11.40;50.30;;;;;;5059863;28;20485;-55
2022/04/03 12:54:12;;;;;;;12.93;2.80;;;11.40;45.60;;;;;;5049477;28;20531;-49
2022/04/03 12:59:26;;;;;;;9.60;3.30;;;11.10;49.40;;;;;;5036142;28;20998;-49